Time;durP1;ratioP1;P1;durP2;ratioP2;P2;SDS_P1;SDS_P2;PMS_P1;PMS_P2;Temp;Humidity;BMP_temperature;BMP_pressure;BME280_temperature;BME280_humidity;BME280_pressure;Samples;Min_cycle;Max_cycle;Signal;HPM_P1;HPM_P2
2023/03/21 00:01:17;;;;;;;;;;;;;;;12.89;100.00;99250.59;5023994;28;20628;-54
2023/03/21 00:03:43;;;;;;;;;;;;;;;12.64;100.00;99276.50;5027460;28;20399;-55
2023/03/21 00:06:10;;;;;;;;;;;;;;;12.94;100.00;99290.03;5024800;28;20019;-53
2023/03/21 00:08:35;;;;;;;;;;;;;;;13.14;100.00;99306.56;5024498;28;20278;-54
2023/03/21 00:11:01;;;;;;;;;;;;;;;12.95;100.00;99308.97;5022843;28;19921;-55
2023/03/21 00:13:31;;;;;;;;;;;;;;;12.57;100.00;99264.69;5023154;28;19920;-55
2023/03/21 00:15:56;;;;;;;;;;;;;;;12.22;100.00;99325.31;5026877;28;20925;-55
2023/03/21 00:18:22;;;;;;;;;;;;;;;13.01;100.00;99320.84;5027109;28;19925;-54
2023/03/21 00:20:57;;;;;;;;;;;;;;;12.64;100.00;99317.00;5028053;28;19920;-55
2023/03/21 00:23:24;;;;;;;;;;;;;;;11.69;100.00;99375.97;5025333;28;20547;-53
2023/03/21 00:25:49;;;;;;;;;;;;;;;12.40;100.00;99397.00;5038969;28;19967;-54
2023/03/21 00:28:14;;;;;;;;;;;;;;;12.98;100.00;99382.09;5040230;28;20000;-54
2023/03/21 00:30:39;;;;;;;;;;;;;;;13.58;100.00;99333.31;5039033;28;19919;-54
2023/03/21 00:33:05;;;;;;;;;;;;;;;12.70;100.00;99296.09;5039403;28;19920;-51
2023/03/21 00:35:31;;;;;;;;;;;;;;;13.77;100.00;99286.84;5038792;28;20027;-54
2023/03/21 00:37:56;;;;;;;;;;;;;;;13.33;100.00;99255.00;5039227;28;19927;-54
2023/03/21 00:40:21;;;;;;;;;;;;;;;13.10;100.00;99259.28;5039511;28;19940;-55
2023/03/21 00:42:46;;;;;;;;;;;;;;;13.07;100.00;99284.38;5037316;28;19917;-54
2023/03/21 00:45:12;;;;;;;;;;;;;;;13.34;100.00;99272.19;5037675;28;19925;-53
2023/03/21 00:47:37;;;;;;;;;;;;;;;13.67;100.00;99244.13;5039448;28;20007;-54
2023/03/21 00:50:03;;;;;;;;;;;;;;;13.62;100.00;99204.66;5039039;28;20561;-53
2023/03/21 00:52:29;;;;;;;;;;;;;;;13.78;100.00;99173.81;5039854;28;19951;-53
2023/03/21 00:54:54;;;;;;;;;;;;;;;13.53;100.00;99153.28;5037318;28;20010;-54
2023/03/21 00:57:19;;;;;;;;;;;;;;;13.24;100.00;99181.16;5038986;28;19920;-55
2023/03/21 00:59:44;;;;;;;;;;;;;;;12.84;100.00;99206.00;5039598;28;19924;-54
2023/03/21 01:02:13;;;;;;;;;;;;;;;12.59;100.00;99231.03;5038621;28;19921;-54
2023/03/21 01:04:38;;;;;;;;;;;;;;;13.11;100.00;99223.91;5037419;28;19974;-55
2023/03/21 01:07:03;;;;;;;;;;;;;;;12.98;100.00;99237.31;5039486;28;19956;-54
2023/03/21 01:09:29;;;;;;;;;;;;;;;13.65;100.00;99222.66;5037340;28;19976;-55
2023/03/21 01:11:54;;;;;;;;;;;;;;;13.38;100.00;99201.31;5039145;28;20564;-54
2023/03/21 01:14:20;;;;;;;;;;;;;;;14.26;100.00;99179.53;5037255;28;19928;-55
2023/03/21 01:16:45;;;;;;;;;;;;;;;14.40;100.00;99128.75;5037886;28;19921;-55
2023/03/21 01:19:12;;;;;;;;;;;;;;;14.29;100.00;99106.84;5038924;28;19924;-55
2023/03/21 01:21:37;;;;;;;;;;;;;;;13.97;100.00;99094.44;5038553;28;20058;-55
2023/03/21 01:24:03;;;;;;;;;;;;;;;14.20;100.00;99108.09;5038696;28;19960;-55
2023/03/21 01:26:28;;;;;;;;;;;;;;;14.11;100.00;99093.81;5037578;28;20012;-54
2023/03/21 01:28:53;;;;;;;;;;;;;;;14.49;100.00;99073.09;5038739;28;20242;-55
2023/03/21 01:31:18;;;;;;;;;;;;;;;14.52;100.00;99054.78;5038122;28;20012;-55
2023/03/21 01:33:44;;;;;;;;;;;;;;;14.53;100.00;99029.72;5038442;28;20023;-52
2023/03/21 01:36:16;;;;;;;;;;;;;;;14.16;100.00;99047.84;5038540;28;20024;-53
2023/03/21 01:38:42;;;;;;;;;;;;;;;14.26;100.00;99032.72;5037710;28;20003;-55
2023/03/21 01:41:08;;;;;;;;;;;;;;;14.02;100.00;99043.25;5038339;28;20460;-55
2023/03/21 01:43:34;;;;;;;;;;;;;;;14.45;100.00;99050.81;5034101;28;19923;-55
2023/03/21 01:46:07;;;;;;;;;;;;;;;14.48;100.00;99035.09;5037613;28;20012;-55
2023/03/21 01:48:33;;;;;;;;;;;;;;;14.44;100.00;99028.41;5036652;28;19921;-55
2023/03/21 01:50:58;;;;;;;;;;;;;;;13.76;100.00;99036.69;5038586;28;19924;-55
2023/03/21 01:53:28;;;;;;;;;;;;;;;13.96;100.00;99046.16;5037107;28;19921;-54
2023/03/21 01:55:53;;;;;;;;;;;;;;;14.22;100.00;99047.53;5038282;28;20328;-55
2023/03/21 01:58:19;;;;;;;;;;;;;;;13.83;100.00;99078.66;5036757;28;19921;-55
2023/03/21 02:00:45;;;;;;;;;;;;;;;14.38;100.00;99070.97;5038333;28;19919;-55
2023/03/21 02:03:15;;;;;;;;;;;;;;;14.29;100.00;99039.50;5037263;28;19921;-55
2023/03/21 02:05:45;;;;;;;;;;;;;;;13.98;100.00;99046.06;5037841;28;19931;-56
2023/03/21 02:08:12;;;;;;;;;;;;;;;14.02;100.00;99043.25;5037538;28;19925;-55
2023/03/21 02:10:37;;;;;;;;;;;;;;;13.90;100.00;99038.66;5036362;28;20079;-55
2023/03/21 02:13:08;;;;;;;;;;;;;;;13.75;100.00;99050.56;5035771;28;20340;-55
2023/03/21 02:15:33;;;;;;;;;;;;;;;13.99;100.00;99050.34;5036923;28;19917;-55
2023/03/21 02:18:04;;;;;;;;;;;;;;;14.05;100.00;99037.13;5037939;28;19921;-55
2023/03/21 02:20:32;;;;;;;;;;;;;;;14.13;100.00;99021.22;5036330;28;19917;-54
2023/03/21 02:23:09;;;;;;;;;;;;;;;14.08;100.00;99026.63;5037667;28;19952;-55
2023/03/21 02:25:55;;;;;;;;;;;;;;;14.38;100.00;99013.16;5036263;28;19964;-54
2023/03/21 02:28:22;;;;;;;;;;;;;;;14.20;100.00;99025.22;5035646;28;20614;-54
2023/03/21 02:31:05;;;;;;;;;;;;;;;13.77;100.00;99032.34;5019714;28;20970;-54
2023/03/21 02:33:30;;;;;;;;;;;;;;;13.83;100.00;99021.72;5035522;28;19920;-55
2023/03/21 02:35:58;;;;;;;;;;;;;;;13.99;100.00;99037.41;5037328;28;19916;-53
2023/03/21 02:38:29;;;;;;;;;;;;;;;13.99;100.00;99021.88;5037876;28;20344;-55
2023/03/21 02:41:01;;;;;;;;;;;;;;;13.72;100.00;98998.91;5036608;28;19917;-53
2023/03/21 02:43:34;;;;;;;;;;;;;;;13.81;100.00;99018.34;5033771;28;19974;-55
2023/03/21 02:46:00;;;;;;;;;;;;;;;13.55;100.00;99061.75;5037331;28;19969;-54
2023/03/21 02:48:30;;;;;;;;;;;;;;;13.89;100.00;99041.31;5035862;28;20385;-55
2023/03/21 02:50:55;;;;;;;;;;;;;;;13.63;100.00;99029.53;5033343;28;20011;-55
2023/03/21 02:53:22;;;;;;;;;;;;;;;13.39;100.00;99061.56;5034334;28;20138;-54
2023/03/21 02:55:47;;;;;;;;;;;;;;;13.58;100.00;99055.59;5034289;28;19916;-54
2023/03/21 02:58:15;;;;;;;;;;;;;;;13.63;100.00;99048.47;5033574;28;19917;-52
2023/03/21 03:00:42;;;;;;;;;;;;;;;14.02;100.00;99034.66;5033112;28;19920;-54
2023/03/21 03:03:08;;;;;;;;;;;;;;;14.14;100.00;99010.81;5034441;28;20204;-54
2023/03/21 03:05:34;;;;;;;;;;;;;;;13.71;100.00;99010.19;5034266;28;20397;-54
2023/03/21 03:08:05;;;;;;;;;;;;;;;14.08;100.00;99021.44;5032724;28;20011;-53
2023/03/21 03:10:34;;;;;;;;;;;;;;;14.15;100.00;98996.94;5032641;28;20198;-54
2023/03/21 03:13:06;;;;;;;;;;;;;;;14.31;100.00;98997.06;5034024;28;20410;-54
2023/03/21 03:15:46;;;;;;;;;;;;;;;14.63;100.00;98967.03;5033101;28;19916;-52
2023/03/21 03:18:18;;;;;;;;;;;;;;;14.41;100.00;98966.38;5036541;28;19917;-54
2023/03/21 03:20:58;;;;;;;;;;;;;;;13.81;100.00;98977.78;5037847;28;19920;-52
2023/03/21 03:23:42;;;;;;;;;;;;;;;14.08;100.00;98982.59;5035706;28;19948;-54
2023/03/21 03:26:08;;;;;;;;;;;;;;;14.37;100.00;98977.81;5036545;28;19916;-52
2023/03/21 03:28:35;;;;;;;;;;;;;;;14.08;100.00;99005.91;5038136;28;19925;-54
2023/03/21 03:31:00;;;;;;;;;;;;;;;14.33;100.00;98990.06;5036504;28;20005;-54
2023/03/21 03:33:26;;;;;;;;;;;;;;;14.20;100.00;98984.59;5036944;28;20492;-53
2023/03/21 03:35:51;;;;;;;;;;;;;;;14.46;100.00;98979.97;5036189;28;19925;-54
2023/03/21 03:38:16;;;;;;;;;;;;;;;14.25;100.00;98971.44;5036838;28;20035;-54
2023/03/21 03:40:45;;;;;;;;;;;;;;;14.47;100.00;98960.88;5036332;28;19923;-55
2023/03/21 03:43:12;;;;;;;;;;;;;;;14.20;100.00;98943.16;5033856;28;19921;-54
2023/03/21 03:45:57;;;;;;;;;;;;;;;14.72;100.00;98947.59;5035555;28;20136;-55
2023/03/21 03:48:26;;;;;;;;;;;;;;;14.41;100.00;98930.94;5036518;28;20084;-52
2023/03/21 03:50:51;;;;;;;;;;;;;;;14.56;100.00;98934.56;5018228;28;20438;-52
2023/03/21 03:53:27;;;;;;;;;;;;;;;14.59;100.00;98938.75;5036672;28;19932;-52
2023/03/21 03:55:52;;;;;;;;;;;;;;;14.92;100.00;98922.44;5036420;28;19932;-52
2023/03/21 03:58:18;;;;;;;;;;;;;;;14.60;100.00;98925.72;5037080;28;19921;-55
2023/03/21 04:00:44;;;;;;;;;;;;;;;14.47;100.00;98927.22;5035978;28;19912;-52
2023/03/21 04:03:09;;;;;;;;;;;;;;;14.66;100.00;98928.91;5037126;28;19927;-52
2023/03/21 04:05:35;;;;;;;;;;;;;;;14.71;100.00;98926.94;5037187;28;19917;-53
2023/03/21 04:08:01;;;;;;;;;;;;;;;15.08;100.00;98906.94;5037891;28;19928;-52
2023/03/21 04:10:26;;;;;;;;;;;;;;;14.63;100.00;98915.19;5037061;28;19928;-53
2023/03/21 04:12:51;;;;;;;;;;;;;;;14.43;100.00;98918.72;5036530;28;20084;-52
2023/03/21 04:15:18;;;;;;;;;;;;;;;14.45;100.00;98934.22;5036611;28;19928;-52
2023/03/21 04:17:44;;;;;;;;;;;;;;;14.53;100.00;98928.63;5035142;28;19981;-52
2023/03/21 04:20:09;;;;;;;;;;;;;;;14.31;100.00;98928.88;5037289;28;19924;-53
2023/03/21 04:22:35;;;;;;;;;;;;;;;14.35;100.00;98948.53;5036766;28;19917;-52
2023/03/21 04:25:00;;;;;;;;;;;;;;;15.08;100.00;98907.75;5036373;28;20560;-52
2023/03/21 04:27:25;;;;;;;;;;;;;;;14.83;100.00;98905.59;5037116;28;19917;-54
2023/03/21 04:29:51;;;;;;;;;;;;;;;14.46;100.00;98901.34;5034520;28;19921;-50
2023/03/21 04:32:18;;;;;;;;;;;;;;;14.86;100.00;98882.09;5036190;28;19917;-54
2023/03/21 04:34:48;;;;;;;;;;;;;;;14.77;100.00;98877.38;5033471;28;19944;-53
2023/03/21 04:37:14;;;;;;;;;;;;;;;14.22;100.00;98893.88;5036779;28;19917;-51
2023/03/21 04:39:40;;;;;;;;;;;;;;;14.19;100.00;98910.41;5036413;28;19983;-54
2023/03/21 04:42:05;;;;;;;;;;;;;;;14.37;100.00;98907.84;5036093;28;19920;-51
2023/03/21 04:44:30;;;;;;;;;;;;;;;14.25;100.00;98898.91;5033536;28;19920;-52
2023/03/21 04:46:55;;;;;;;;;;;;;;;14.22;100.00;98893.88;5036964;28;20008;-52
2023/03/21 04:49:21;;;;;;;;;;;;;;;14.08;100.00;98902.31;5036345;28;20023;-55
2023/03/21 04:51:46;;;;;;;;;;;;;;;13.51;100.00;98924.84;5036827;28;20101;-53
2023/03/21 04:54:12;;;;;;;;;;;;;;;14.01;100.00;98911.31;5035770;28;19974;-52
2023/03/21 04:56:37;;;;;;;;;;;;;;;13.72;100.00;98923.00;5036025;28;20312;-54
2023/03/21 04:59:05;;;;;;;;;;;;;;;14.02;100.00;98921.56;5036789;28;19917;-53
2023/03/21 05:01:31;;;;;;;;;;;;;;;14.33;100.00;98911.50;5036051;28;19917;-52
2023/03/21 05:03:57;;;;;;;;;;;;;;;14.18;100.00;98903.53;5036563;28;19917;-52
2023/03/21 05:06:22;;;;;;;;;;;;;;;14.00;100.00;98910.47;5035431;28;20362;-53
2023/03/21 05:08:47;;;;;;;;;;;;;;;14.14;100.00;98902.03;5036378;28;20369;-52
2023/03/21 05:11:13;;;;;;;;;;;;;;;13.92;100.00;98902.22;5034210;28;19916;-52
2023/03/21 05:13:38;;;;;;;;;;;;;;;13.09;100.00;98931.81;5035434;28;19923;-51
2023/03/21 05:16:03;;;;;;;;;;;;;;;13.09;100.00;98967.16;5036061;28;19917;-50
2023/03/21 05:18:29;;;;;;;;;;;;;;;13.67;100.00;98956.88;5035406;28;19986;-52
2023/03/21 05:20:54;;;;;;;;;;;;;;;13.57;100.00;98947.81;5035434;28;19917;-51
2023/03/21 05:23:20;;;;;;;;;;;;;;;12.96;100.00;98967.69;5033454;28;19923;-52
2023/03/21 05:25:45;;;;;;;;;;;;;;;13.50;100.00;98957.63;5035111;28;20047;-50
2023/03/21 05:28:11;;;;;;;;;;;;;;;13.25;100.00;98955.25;5036107;28;20089;-52
2023/03/21 05:30:36;;;;;;;;;;;;;;;13.47;100.00;98973.28;5034532;28;19932;-51
2023/03/21 05:33:01;;;;;;;;;;;;;;;13.60;100.00;98942.53;5035218;28;20340;-51
2023/03/21 05:35:27;;;;;;;;;;;;;;;13.43;100.00;98935.50;5034990;28;19917;-51
2023/03/21 05:37:52;;;;;;;;;;;;;;;13.39;100.00;98959.88;5035164;28;20165;-53
2023/03/21 05:40:17;;;;;;;;;;;;;;;13.15;100.00;98966.91;5034470;28;19939;-52
2023/03/21 05:42:43;;;;;;;;;;;;;;;13.50;100.00;98951.59;5035630;28;19921;-51
2023/03/21 05:45:08;;;;;;;;;;;;;;;12.75;100.00;98973.75;5033271;28;19940;-51
2023/03/21 05:47:34;;;;;;;;;;;;;;;12.42;100.00;99006.94;5035629;28;19917;-51
2023/03/21 05:49:59;;;;;;;;;;;;;;;13.51;100.00;99025.75;5033967;28;19917;-53
2023/03/21 05:52:24;;;;;;;;;;;;;;;12.90;100.00;99024.78;5034867;28;20329;-52
2023/03/21 05:54:50;;;;;;;;;;;;;;;12.62;100.00;99050.09;5033685;28;19960;-52
2023/03/21 05:57:17;;;;;;;;;;;;;;;12.50;100.00;99096.16;5034703;28;20389;-53
2023/03/21 05:59:43;;;;;;;;;;;;;;;12.40;100.00;99099.97;5035173;28;19981;-52
2023/03/21 06:02:08;;;;;;;;;;;;;;;12.95;100.00;99125.41;5035162;28;19921;-50
2023/03/21 06:04:33;;;;;;;;;;;;;;;12.33;100.00;99132.09;5034555;28;19993;-53
2023/03/21 06:06:58;;;;;;;;;;;;;;;12.80;100.00;99142.38;5035456;28;19925;-50
2023/03/21 06:09:24;;;;;;;;;;;;;;;13.40;100.00;99127.09;5034826;28;19985;-52
2023/03/21 06:11:51;;;;;;;;;;;;;;;12.94;100.00;99093.56;5035734;28;19912;-51
2023/03/21 06:14:16;;;;;;;;;;;;;;;13.08;100.00;99102.50;5032487;28;19924;-53
2023/03/21 06:16:41;;;;;;;;;;;;;;;13.08;100.00;99089.59;5035107;28;19921;-53
2023/03/21 06:19:06;;;;;;;;;;;;;;;13.78;100.00;99073.69;5035329;28;19917;-51
2023/03/21 06:21:32;;;;;;;;;;;;;;;13.70;100.00;99062.81;5034802;28;20428;-53
2023/03/21 06:23:57;;;;;;;;;;;;;;;14.03;100.00;99026.00;5034569;28;20274;-51
2023/03/21 06:26:22;;;;;;;;;;;;;;;13.63;100.00;99025.19;5034850;28;20000;-54
2023/03/21 06:28:48;;;;;;;;;;;;;;;13.24;100.00;99058.75;5034315;28;20028;-51
2023/03/21 06:31:14;;;;;;;;;;;;;;;13.71;100.00;99056.75;5035300;28;19998;-53
2023/03/21 06:33:39;;;;;;;;;;;;;;;13.42;100.00;99036.50;5033916;28;20475;-52
2023/03/21 06:36:04;;;;;;;;;;;;;;;14.14;100.00;99048.78;5034969;28;19916;-54
2023/03/21 06:38:30;;;;;;;;;;;;;;;14.32;100.00;98997.88;5034669;28;19952;-54
2023/03/21 06:40:55;;;;;;;;;;;;;;;14.42;100.00;98984.44;5035231;28;19951;-52
2023/03/21 06:43:21;;;;;;;;;;;;;;;14.36;100.00;98979.53;5030415;28;19921;-53
2023/03/21 06:45:46;;;;;;;;;;;;;;;13.74;100.00;98978.97;5034860;28;20046;-54
2023/03/21 06:48:11;;;;;;;;;;;;;;;13.61;100.00;99011.47;5035322;28;19924;-53
2023/03/21 06:50:36;;;;;;;;;;;;;;;14.41;100.00;99023.34;5033217;28;19923;-54
2023/03/21 06:53:01;;;;;;;;;;;;;;;14.28;100.00;98991.16;5038199;28;19921;-51
2023/03/21 06:55:27;;;;;;;;;;;;;;;14.08;100.00;98984.34;5038628;28;19916;-54
2023/03/21 06:57:53;;;;;;;;;;;;;;;14.14;100.00;98979.72;5037574;28;20407;-54
2023/03/21 07:00:18;;;;;;;;;;;;;;;15.17;100.00;98945.34;5038222;28;19916;-53
2023/03/21 07:02:45;;;;;;;;;;;;;;;15.05;100.00;98915.69;5038147;28;19924;-52
2023/03/21 07:05:10;;;;;;;;;;;;;;;14.18;100.00;98944.16;5038218;28;20006;-53
2023/03/21 07:07:35;;;;;;;;;;;;;;;14.81;100.00;98972.22;5038256;28;19916;-51
2023/03/21 07:10:01;;;;;;;;;;;;;;;14.87;100.00;98955.50;5037870;28;19925;-55
2023/03/21 07:12:26;;;;;;;;;;;;;;;14.88;100.00;98934.72;5037849;28;19917;-54
2023/03/21 07:14:51;;;;;;;;;;;;;;;14.76;100.00;98940.53;5037593;28;19921;-53
2023/03/21 07:17:16;;;;;;;;;;;;;;;14.71;100.00;98926.94;5037741;28;20020;-54
2023/03/21 07:19:44;;;;;;;;;;;;;;;15.26;100.00;98918.94;5037635;28;20919;-51
2023/03/21 07:22:09;;;;;;;;;;;;;;;14.54;100.00;98905.28;5037806;28;20377;-54
2023/03/21 07:24:34;;;;;;;;;;;;;;;14.56;100.00;98939.75;5033874;28;19921;-53
2023/03/21 07:26:59;;;;;;;;;;;;;;;14.74;100.00;98942.34;5036539;28;19917;-52
2023/03/21 07:29:25;;;;;;;;;;;;;;;14.73;100.00;98946.66;5038194;28;20289;-53
2023/03/21 07:31:50;;;;;;;;;;;;;;;14.68;100.00;98932.28;5037848;28;19916;-53
2023/03/21 07:34:16;;;;;;;;;;;;;;;15.10;100.00;98938.78;5037411;28;20337;-52
2023/03/21 07:36:41;;;;;;;;;;;;;;;15.05;100.00;98926.91;5038978;28;19939;-53
2023/03/21 07:39:07;;;;;;;;;;;;;;;15.17;100.00;98929.78;5038199;28;20393;-53
2023/03/21 07:41:32;;;;;;;;;;;;;;;15.38;100.00;98923.47;5036558;28;19924;-54
2023/03/21 07:43:57;;;;;;;;;;;;;;;13.59;100.00;98951.19;5035106;28;20436;-54
2023/03/21 07:46:22;;;;;;;;;;;;;;;14.38;100.00;99019.16;5038042;28;20138;-51
2023/03/21 07:48:47;;;;;;;;;;;;;;;14.14;100.00;99028.06;5038220;28;19917;-53
2023/03/21 07:51:13;;;;;;;;;;;;;;;14.43;100.00;99063.81;5038327;28;20246;-54
2023/03/21 07:53:40;;;;;;;;;;;;;;;13.88;100.00;99056.00;5036214;28;19928;-52
2023/03/21 07:56:06;;;;;;;;;;;;;;;15.09;100.00;99053.84;5037679;28;19927;-53
2023/03/21 07:58:33;;;;;;;;;;;;;;;14.89;100.00;99019.34;5037616;28;19913;-53
2023/03/21 08:00:58;;;;;;;;;;;;;;;14.99;100.00;99020.56;5036918;28;19916;-51
2023/03/21 08:03:25;;;;;;;;;;;;;;;14.35;100.00;99034.03;5036408;28;20403;-50
2023/03/21 08:05:50;;;;;;;;;;;;;;;15.06;100.00;99042.69;5037361;28;20174;-53
2023/03/21 08:08:15;;;;;;;;;;;;;;;15.05;100.00;99030.66;5036475;28;19925;-54
2023/03/21 08:10:41;;;;;;;;;;;;;;;15.08;100.00;99049.56;5036040;28;19925;-54
2023/03/21 08:13:06;;;;;;;;;;;;;;;15.06;100.00;99060.03;5036831;28;19921;-50
2023/03/21 08:15:31;;;;;;;;;;;;;;;14.53;100.00;99060.81;5037823;28;19921;-54
2023/03/21 08:17:57;;;;;;;;;;;;;;;14.89;100.00;99097.13;5037692;28;19923;-52
2023/03/21 08:20:22;;;;;;;;;;;;;;;14.61;100.00;99093.25;5036402;28;19921;-52
2023/03/21 08:22:48;;;;;;;;;;;;;;;14.23;100.00;99103.63;5036628;28;19917;-53
2023/03/21 08:25:14;;;;;;;;;;;;;;;14.21;100.00;99146.06;5038055;28;20617;-52
2023/03/21 08:27:40;;;;;;;;;;;;;;;14.08;100.00;99165.63;5039078;28;20554;-53
2023/03/21 08:30:06;;;;;;;;;;;;;;;14.49;100.00;99202.66;5039568;28;19928;-55
2023/03/21 08:32:32;;;;;;;;;;;;;;;14.79;100.00;99197.00;5039612;28;19923;-54
2023/03/21 08:34:58;;;;;;;;;;;;;;;14.29;100.00;99198.34;5039560;28;19920;-53
2023/03/21 08:37:23;;;;;;;;;;;;;;;14.52;100.00;99207.69;5038309;28;19924;-52
2023/03/21 08:39:49;;;;;;;;;;;;;;;14.24;100.00;99215.84;5039934;28;19920;-49
2023/03/21 08:42:15;;;;;;;;;;;;;;;14.65;100.00;99239.13;5037790;28;19924;-51
2023/03/21 08:44:40;;;;;;;;;;;;;;;14.47;100.00;99201.88;5035579;28;20513;-50
2023/03/21 08:47:05;;;;;;;;;;;;;;;14.60;100.00;99195.28;5038468;28;20008;-51
2023/03/21 08:49:31;;;;;;;;;;;;;;;14.46;100.00;99195.03;5038054;28;20016;-49
2023/03/21 08:51:56;;;;;;;;;;;;;;;14.03;100.00;99230.56;5037470;28;19950;-52
2023/03/21 08:54:21;;;;;;;;;;;;;;;13.17;100.00;99272.81;5037901;28;19920;-50
2023/03/21 08:56:47;;;;;;;;;;;;;;;14.52;100.00;99350.22;5039405;28;19916;-49
2023/03/21 08:59:12;;;;;;;;;;;;;;;14.36;100.00;99318.09;5038861;28;19972;-51
2023/03/21 09:01:37;;;;;;;;;;;;;;;14.32;100.00;99316.53;5039549;28;19939;-49
2023/03/21 09:04:06;;;;;;;;;;;;;;;13.71;100.00;99338.88;5038246;28;19916;-49
2023/03/21 09:06:32;;;;;;;;;;;;;;;14.49;100.00;99373.69;5039080;28;20595;-51
2023/03/21 09:08:57;;;;;;;;;;;;;;;14.70;100.00;99381.50;5039628;28;19925;-53
2023/03/21 09:11:23;;;;;;;;;;;;;;;14.79;100.00;99375.91;5038183;28;19953;-49
2023/03/21 09:13:48;;;;;;;;;;;;;;;14.92;100.00;99364.09;5036494;28;19928;-50
2023/03/21 09:16:13;;;;;;;;;;;;;;;14.46;100.00;99373.81;5038394;28;19923;-50
2023/03/21 09:18:47;;;;;;;;;;;;;;;14.74;100.00;99385.66;5038557;28;19916;-51
2023/03/21 09:21:13;;;;;;;;;;;;;;;14.92;100.00;99396.97;5038796;28;19960;-52
2023/03/21 09:23:39;;;;;;;;;;;;;;;14.79;100.00;99370.72;5038233;28;19917;-51
2023/03/21 09:26:05;;;;;;;;;;;;;;;14.20;100.00;99413.75;5038535;28;19923;-50
2023/03/21 09:28:30;;;;;;;;;;;;;;;14.15;100.00;99421.69;5039049;28;19920;-49
2023/03/21 09:30:57;;;;;;;;;;;;;;;14.83;100.00;99430.16;5038609;28;20003;-51
2023/03/21 09:33:24;;;;;;;;;;;;;;;14.26;100.00;99423.03;5038166;28;19917;-49
2023/03/21 09:35:49;;;;;;;;;;;;;;;14.15;100.00;99426.88;5037770;28;19955;-53
2023/03/21 09:38:15;;;;;;;;;;;;;;;14.34;100.00;99420.97;5038728;28;20409;-50
2023/03/21 09:40:43;;;;;;;;;;;;;;;14.87;100.00;99428.31;5037934;28;19924;-50
2023/03/21 09:43:15;;;;;;;;;;;;;;;14.23;100.00;99390.28;5036671;28;19924;-52
2023/03/21 09:45:59;;;;;;;;;;;;;;;14.40;100.00;99418.97;5037533;28;20308;-50
2023/03/21 09:48:32;;;;;;;;;;;;;;;14.48;100.00;99410.03;5038998;28;19921;-51
2023/03/21 09:50:57;;;;;;;;;;;;;;;14.99;100.00;99409.59;5038539;28;19924;-50
2023/03/21 09:53:25;;;;;;;;;;;;;;;14.83;100.00;99386.09;5037141;28;19913;-52
2023/03/21 09:55:52;;;;;;;;;;;;;;;14.79;100.00;99414.81;5037252;28;19917;-49
2023/03/21 09:58:27;;;;;;;;;;;;;;;14.64;100.00;99452.56;5037486;28;20011;-50
2023/03/21 10:00:56;;;;;;;;;;;;;;;14.16;100.00;99469.16;5038437;28;19967;-50
2023/03/21 10:03:23;;;;;;;;;;;;;;;14.58;100.00;99491.72;5037907;28;20935;-52
2023/03/21 10:05:51;;;;;;;;;;;;;;;14.61;100.00;99507.97;5038300;28;19925;-50
2023/03/21 10:08:26;;;;;;;;;;;;;;;14.72;100.00;99488.56;5036918;28;19917;-50
2023/03/21 10:10:52;;;;;;;;;;;;;;;14.56;100.00;99499.56;5036201;28;19921;-50
2023/03/21 10:13:24;;;;;;;;;;;;;;;13.67;100.00;99492.59;5036383;28;19917;-52
2023/03/21 10:15:49;;;;;;;;;;;;;;;14.68;100.00;99544.03;5037091;28;19932;-50
2023/03/21 10:18:20;;;;;;;;;;;;;;;14.55;100.00;99521.22;5036281;28;19920;-52
2023/03/21 10:20:46;;;;;;;;;;;;;;;14.97;100.00;99541.09;5036230;28;19916;-49
2023/03/21 10:23:12;;;;;;;;;;;;;;;14.27;100.00;99517.97;5037562;28;19947;-50
2023/03/21 10:26:04;;;;;;;;;;;;;;;14.12;100.00;99545.31;5037624;28;19920;-49
2023/03/21 10:28:30;;;;;;;;;;;;;;;14.71;100.00;99582.78;5037886;28;19966;-50
2023/03/21 10:30:57;;;;;;;;;;;;;;;15.09;100.00;99554.47;5040751;28;20389;-50
2023/03/21 10:33:23;;;;;;;;;;;;;;;14.49;100.00;99503.25;5040582;28;19920;-53
2023/03/21 10:35:50;;;;;;;;;;;;;;;14.49;100.00;99505.84;5041064;28;19916;-50
2023/03/21 10:38:16;;;;;;;;;;;;;;;14.62;100.00;99514.88;5042364;28;19916;-49
2023/03/21 10:40:41;;;;;;;;;;;;;;;14.65;100.00;99557.97;5040163;28;20015;-51
2023/03/21 10:43:15;;;;;;;;;;;;;;;15.05;100.00;99549.41;5038716;28;20019;-51
2023/03/21 10:45:41;;;;;;;;;;;;;;;15.15;100.00;99502.34;5040017;28;20407;-52
2023/03/21 10:48:06;;;;;;;;;;;;;;;14.73;100.00;99459.13;5041126;28;19921;-50
2023/03/21 10:50:32;;;;;;;;;;;;;;;15.25;100.00;99488.03;5041311;28;19932;-52
2023/03/21 10:52:59;;;;;;;;;;;;;;;15.97;100.00;99440.69;5039817;28;19923;-51
2023/03/21 10:55:32;;;;;;;;;;;;;;;15.47;100.00;99347.78;5040574;28;19917;-51
2023/03/21 10:58:09;;;;;;;;;;;;;;;15.23;100.00;99376.53;5040810;28;19967;-49
2023/03/21 11:00:37;;;;;;;;;;;;;;;14.23;100.00;99408.44;5041486;28;19979;-52
2023/03/21 11:03:02;;;;;;;;;;;;;;;14.63;100.00;99476.81;5039554;28;20595;-52
2023/03/21 11:05:33;;;;;;;;;;;;;;;14.25;100.00;99483.50;5041227;28;19967;-52
2023/03/21 11:07:59;;;;;;;;;;;;;;;15.11;100.00;99505.97;5042471;28;20032;-51
2023/03/21 11:10:26;;;;;;;;;;;;;;;14.30;100.00;99434.94;5040240;28;20007;-52
2023/03/21 11:12:53;;;;;;;;;;;;;;;14.61;100.00;99482.06;5040023;28;19932;-50
2023/03/21 11:15:25;;;;;;;;;;;;;;;15.03;100.00;99498.50;5040259;28;19962;-51
2023/03/21 11:17:50;;;;;;;;;;;;;;;15.24;100.00;99413.72;5041672;28;20393;-51
2023/03/21 11:20:17;;;;;;;;;;;;;;;14.59;100.00;99438.97;5041876;28;20022;-50
2023/03/21 11:22:43;;;;;;;;;;;;;;;15.12;100.00;99438.47;5040912;28;20333;-49
2023/03/21 11:25:10;;;;;;;;;;;;;;;14.42;100.00;99442.22;5041210;28;19925;-50
2023/03/21 11:27:36;;;;;;;;;;;;;;;14.39;100.00;99483.78;5039827;28;20046;-49
2023/03/21 11:30:03;;;;;;;;;;;;;;;14.78;100.00;99516.81;5039917;28;20003;-52
2023/03/21 11:32:30;;;;;;;;;;;;;;;14.44;100.00;99523.34;5041688;28;19970;-51
2023/03/21 11:34:56;;;;;;;;;;;;;;;14.34;100.00;99532.38;5038664;28;20005;-50
2023/03/21 11:37:26;;;;;;;;;;;;;;;13.90;100.00;99535.75;5038402;28;20035;-51
2023/03/21 11:40:14;;;;;;;;;;;;;;;14.52;100.00;99619.75;5039565;28;20267;-50
2023/03/21 11:42:41;;;;;;;;;;;;;;;14.80;100.00;99635.16;5035586;28;19947;-49
2023/03/21 11:45:11;;;;;;;;;;;;;;;14.40;100.00;99602.94;5039287;28;19952;-52
2023/03/21 11:47:37;;;;;;;;;;;;;;;14.50;100.00;99625.91;5039789;28;19964;-49
2023/03/21 11:50:05;;;;;;;;;;;;;;;14.58;100.00;99684.38;5040828;28;19951;-48
2023/03/21 11:52:36;;;;;;;;;;;;;;;14.38;100.00;99703.22;5039950;28;19920;-49
2023/03/21 11:55:21;;;;;;;;;;;;;;;13.50;100.00;99679.53;5037722;28;19916;-48
2023/03/21 11:58:05;;;;;;;;;;;;;;;14.67;100.00;99718.66;5018497;28;19916;-49
2023/03/21 12:00:35;;;;;;;;;;;;;;;15.09;100.00;99741.25;5040188;28;20003;-48
2023/03/21 12:03:15;;;;;;;;;;;;;;;15.06;100.00;99719.69;5039279;28;19917;-50
2023/03/21 12:06:01;;;;;;;;;;;;;;;14.83;100.00;99652.31;5040550;28;19952;-50
2023/03/21 12:08:32;;;;;;;;;;;;;;;14.24;100.00;99630.34;5039192;28;19969;-49
2023/03/21 12:11:02;;;;;;;;;;;;;;;14.57;100.00;99656.78;5040490;28;20019;-49
2023/03/21 12:13:27;;;;;;;;;;;;;;;14.11;100.00;99663.59;5039763;28;20019;-49
2023/03/21 12:15:57;;;;;;;;;;;;;;;14.82;100.00;99690.38;5040354;28;20003;-49
2023/03/21 12:18:22;;;;;;;;;;;;;;;14.35;100.00;99650.66;5040095;28;19928;-49
2023/03/21 12:20:52;;;;;;;;;;;;;;;14.47;100.00;99707.22;5040109;28;19916;-51
2023/03/21 12:23:23;;;;;;;;;;;;;;;13.95;100.00;99714.25;5038538;28;20536;-51
2023/03/21 12:25:55;;;;;;;;;;;;;;;14.51;100.00;99742.50;5039521;28;19916;-52
2023/03/21 12:28:40;;;;;;;;;;;;;;;15.29;100.00;99728.34;5039502;28;20015;-49
2023/03/21 12:31:24;;;;;;;;;;;;;;;15.36;100.00;99640.69;5038994;28;19990;-52
2023/03/21 12:33:57;;;;;;;;;;;;;;;14.12;100.00;99633.38;5039078;28;19999;-49
2023/03/21 12:36:37;;;;;;;;;;;;;;;14.58;100.00;99668.81;5039121;28;20008;-50